createdAt,value
2019-06-01T00:00:10.376Z,7.13
2019-06-01T00:02:27.811Z,7.27
2019-06-01T00:04:58.109Z,5.20
2019-06-01T00:07:28.330Z,5.70
2019-06-01T00:09:58.681Z,5.90
2019-06-01T00:12:29.038Z,7.17
2019-06-01T00:14:59.473Z,7.00
2019-06-01T00:17:29.810Z,5.67
2019-06-01T00:20:00.136Z,5.83
2019-06-01T00:22:30.381Z,5.97
2019-06-01T00:25:00.759Z,5.50
2019-06-01T00:27:31.043Z,8.03
2019-06-01T00:30:01.377Z,6.97
2019-06-01T00:32:31.631Z,7.33
2019-06-01T00:35:02.098Z,5.83
2019-06-01T00:37:33.584Z,6.07
2019-06-01T00:40:04.180Z,7.13
2019-06-01T00:42:34.681Z,6.83
2019-06-01T00:45:06.109Z,7.33
2019-06-01T00:47:36.337Z,6.50
2019-06-01T00:50:07.211Z,5.70
2019-06-01T00:52:37.643Z,6.60
2019-06-01T00:55:08.101Z,6.67
2019-06-01T00:57:38.439Z,5.93
2019-06-01T01:00:09.173Z,5.87
2019-06-01T01:02:39.597Z,6.20
2019-06-01T01:05:15.963Z,7.23
2019-06-01T01:07:48.687Z,7.03
2019-06-01T01:10:19.473Z,8.60
2019-06-01T01:13:07.432Z,6.77
2019-06-01T01:15:37.914Z,7.30
2019-06-01T01:18:08.655Z,6.43
2019-06-01T01:20:39.005Z,7.10
2019-06-01T01:23:09.260Z,6.10
2019-06-01T01:25:39.463Z,6.47
2019-06-01T01:28:09.935Z,6.80
2019-06-01T01:30:40.406Z,6.83
2019-06-01T01:33:10.715Z,6.47
2019-06-01T01:35:41.087Z,6.90
2019-06-01T01:38:12.267Z,6.23
2019-06-01T01:40:42.735Z,6.80
2019-06-01T01:43:13.087Z,8.60
2019-06-01T01:45:43.796Z,8.17
2019-06-01T01:48:14.240Z,6.63
2019-06-01T01:50:44.434Z,9.50
2019-06-01T01:53:14.702Z,8.70
2019-06-01T01:55:45.939Z,6.70
2019-06-01T01:58:16.390Z,7.17
2019-06-01T02:00:47.261Z,6.83
2019-06-01T02:03:17.636Z,7.23
2019-06-01T02:05:47.881Z,7.07
2019-06-01T02:08:18.544Z,6.87
2019-06-01T02:10:48.831Z,6.37
2019-06-01T02:13:21.115Z,6.97
2019-06-01T02:15:52.288Z,7.63
2019-06-01T02:18:22.594Z,7.00
2019-06-01T02:20:52.811Z,7.00
2019-06-01T02:23:24.679Z,7.10
2019-06-01T02:25:54.943Z,7.07
2019-06-01T02:28:25.258Z,7.67
2019-06-01T02:30:56.092Z,8.00
2019-06-01T02:33:26.763Z,7.17
2019-06-01T02:35:58.088Z,6.90
2019-06-01T02:38:28.431Z,6.97
2019-06-01T02:41:01.202Z,7.03
2019-06-01T02:43:31.901Z,6.30
2019-06-01T02:46:02.899Z,7.50
2019-06-01T02:48:34.254Z,6.70
2019-06-01T02:51:05.492Z,6.60
2019-06-01T02:53:35.791Z,6.27
2019-06-01T02:56:06.271Z,6.90
2019-06-01T02:58:36.530Z,7.60
2019-06-01T03:01:36.229Z,9.20
2019-06-01T03:04:08.553Z,7.00
2019-06-01T03:06:41.786Z,6.67
2019-06-01T03:09:13.361Z,6.00
2019-06-01T03:11:43.876Z,6.27
2019-06-01T03:14:14.189Z,6.27
2019-06-01T03:16:44.545Z,6.50
2019-06-01T03:19:17.158Z,6.10
2019-06-01T03:21:51.578Z,5.80
2019-06-01T03:24:25.702Z,6.33
2019-06-01T03:26:56.283Z,6.17
2019-06-01T03:29:29.226Z,6.80
2019-06-01T03:32:19.130Z,7.13
2019-06-01T03:34:31.582Z,7.07
2019-06-01T03:37:02.891Z,7.77
2019-06-01T03:39:33.802Z,6.13
2019-06-01T03:42:05.197Z,5.80
2019-06-01T03:44:35.549Z,6.90
2019-06-01T03:47:05.761Z,6.40
2019-06-01T03:49:36.169Z,6.10
2019-06-01T03:52:06.905Z,6.30
2019-06-01T03:54:37.242Z,7.90
2019-06-01T03:57:09.187Z,6.53
2019-06-01T03:59:39.505Z,6.17
2019-06-01T04:02:09.792Z,5.50
2019-06-01T04:04:39.978Z,8.40
2019-06-01T04:07:10.763Z,6.67
2019-06-01T04:09:41.073Z,5.43
2019-06-01T04:12:11.981Z,5.27
2019-06-01T04:14:42.377Z,5.67
2019-06-01T04:17:12.659Z,7.07
2019-06-01T04:19:42.890Z,5.80
2019-06-01T04:22:14.230Z,5.67
2019-06-01T04:24:44.497Z,6.30
2019-06-01T04:27:14.737Z,6.27
2019-06-01T04:29:44.989Z,5.20
2019-06-01T04:32:15.282Z,5.23
2019-06-01T04:34:45.482Z,5.27
2019-06-01T04:37:15.745Z,5.80
2019-06-01T04:39:46.090Z,5.47
2019-06-01T04:42:17.459Z,6.77
2019-06-01T04:44:47.696Z,6.27
2019-06-01T04:47:18.029Z,7.63
2019-06-01T04:49:48.214Z,6.50
2019-06-01T04:52:18.437Z,6.17
2019-06-01T04:54:50.295Z,8.20
2019-06-01T04:57:20.636Z,6.33
2019-06-01T04:59:50.865Z,9.47
2019-06-01T05:02:22.725Z,6.73
2019-06-01T05:04:52.940Z,9.20
2019-06-01T05:07:23.253Z,5.57
2019-06-01T05:09:53.451Z,5.60
2019-06-01T05:12:23.851Z,6.10
2019-06-01T05:14:54.085Z,5.83
2019-06-01T05:17:24.389Z,7.60
2019-06-01T05:19:54.572Z,5.20
2019-06-01T05:22:24.857Z,7.30
2019-06-01T05:24:55.193Z,12.33
2019-06-01T05:27:25.460Z,4.77
2019-06-01T05:29:55.663Z,6.60
2019-06-01T05:32:25.966Z,5.83
2019-06-01T05:34:56.286Z,5.43
2019-06-01T05:37:26.508Z,5.27
2019-06-01T05:39:56.746Z,6.17
2019-06-01T05:42:26.985Z,5.63
2019-06-01T05:44:57.262Z,5.73
2019-06-01T05:47:27.450Z,5.53
2019-06-01T05:49:57.743Z,5.67
2019-06-01T05:52:27.960Z,9.30
2019-06-01T05:54:59.347Z,5.40
2019-06-01T05:57:29.669Z,5.30
2019-06-01T06:00:00.066Z,5.50
2019-06-01T06:02:30.294Z,6.33
2019-06-01T06:05:00.537Z,5.23
2019-06-01T06:07:30.790Z,5.10
2019-06-01T06:10:01.335Z,4.50
2019-06-01T06:12:31.520Z,4.80
2019-06-01T06:15:01.765Z,4.53
2019-06-01T06:17:32.056Z,4.50
2019-06-01T06:20:02.401Z,4.47
2019-06-01T06:22:32.610Z,4.40
2019-06-01T06:25:02.880Z,5.43
2019-06-01T06:27:33.138Z,4.60
2019-06-01T06:30:04.019Z,4.97
2019-06-01T06:32:34.349Z,4.20
2019-06-01T06:35:05.114Z,4.60
2019-06-01T06:37:35.452Z,3.83
2019-06-01T06:40:06.148Z,7.60
2019-06-01T06:42:36.480Z,5.93
2019-06-01T06:45:07.164Z,3.73
2019-06-01T06:47:37.452Z,6.27
2019-06-01T06:50:10.195Z,5.03
2019-06-01T06:52:40.745Z,3.90
2019-06-01T06:55:11.164Z,5.43
2019-06-01T06:57:41.603Z,4.10
2019-06-01T07:00:12.437Z,3.93
2019-06-01T07:02:42.869Z,5.03
2019-06-01T07:05:13.729Z,5.70
2019-06-01T07:07:45.642Z,3.43
2019-06-01T07:10:16.032Z,9.93
2019-06-01T07:12:46.401Z,3.87
2019-06-01T07:15:16.698Z,3.83
2019-06-01T07:17:47.335Z,4.37
2019-06-01T07:20:17.769Z,4.20
2019-06-01T07:22:48.155Z,6.73
2019-06-01T07:25:19.589Z,4.93
2019-06-01T07:27:50.263Z,5.00
2019-06-01T07:30:20.511Z,5.10
2019-06-01T07:32:50.908Z,4.40
2019-06-01T07:35:22.414Z,4.97
2019-06-01T07:37:52.837Z,3.60
2019-06-01T07:40:24.885Z,3.83
2019-06-01T07:42:55.959Z,3.80
2019-06-01T07:45:26.945Z,1.80
2019-06-01T07:47:57.255Z,2.50
2019-06-01T07:50:28.072Z,2.70
2019-06-01T07:52:58.420Z,1.60
2019-06-01T07:55:29.775Z,1.60
2019-06-01T07:58:01.174Z,4.13
2019-06-01T08:00:31.495Z,2.70
2019-06-01T08:03:04.878Z,3.00
2019-06-01T08:05:35.122Z,4.70
2019-06-01T08:08:05.476Z,1.60
2019-06-01T08:10:35.804Z,2.30
2019-06-01T08:13:06.103Z,1.43
2019-06-01T08:15:36.396Z,1.50
2019-06-01T08:18:06.697Z,2.83
2019-06-01T08:20:36.981Z,6.00
2019-06-01T08:23:07.346Z,2.87
2019-06-01T08:25:37.833Z,1.77
2019-06-01T08:28:10.776Z,3.83
2019-06-01T08:30:41.064Z,4.63
2019-06-01T08:33:11.417Z,2.67
2019-06-01T08:35:41.711Z,5.93
2019-06-01T08:38:11.935Z,2.57
2019-06-01T08:40:42.284Z,2.93
2019-06-01T08:43:12.769Z,1.50
2019-06-01T08:45:43.315Z,1.70
2019-06-01T08:48:13.667Z,1.60
2019-06-01T08:50:46.228Z,7.33
2019-06-01T08:53:17.428Z,3.23
2019-06-01T08:55:47.673Z,2.00
2019-06-01T08:58:17.945Z,2.20
2019-06-01T09:00:49.411Z,1.80
2019-06-01T09:03:19.674Z,1.83
2019-06-01T09:05:49.999Z,3.03
2019-06-01T09:08:23.599Z,2.67
2019-06-01T09:10:52.564Z,1.50
2019-06-01T09:13:23.022Z,2.83
2019-06-01T09:15:53.465Z,2.10
2019-06-01T09:18:23.695Z,1.93
2019-06-01T09:20:54.090Z,2.07
2019-06-01T09:23:25.443Z,2.67
2019-06-01T09:28:27.840Z,1.70
2019-06-01T09:30:58.162Z,1.83
2019-06-01T09:33:28.506Z,2.73
2019-06-01T09:35:58.907Z,2.83
2019-06-01T09:38:29.607Z,1.67
2019-06-01T09:41:00.171Z,2.40
2019-06-01T09:43:31.222Z,1.67
2019-06-01T09:46:01.634Z,1.67
2019-06-01T09:48:31.918Z,2.00
2019-06-01T09:51:02.311Z,1.40
2019-06-01T09:53:34.328Z,2.07
2019-06-01T09:56:05.019Z,1.50
2019-06-01T09:58:36.751Z,1.60
2019-06-01T10:01:07.366Z,1.37
2019-06-01T10:03:38.550Z,1.37
2019-06-01T10:06:09.013Z,1.30
2019-06-01T10:08:39.801Z,1.60
2019-06-01T10:11:10.094Z,1.40
2019-06-01T10:13:40.355Z,1.37
2019-06-01T10:16:10.630Z,3.03
2019-06-01T10:18:40.885Z,1.30
2019-06-01T10:21:11.186Z,1.10
2019-06-01T10:23:42.696Z,1.90
2019-06-01T10:26:13.178Z,2.50
2019-06-01T10:28:43.452Z,2.70
2019-06-01T10:31:13.841Z,1.03
2019-06-01T10:33:44.154Z,1.93
2019-06-01T10:36:20.344Z,1.43
2019-06-01T10:38:46.457Z,2.63
2019-06-01T10:41:16.872Z,1.53
2019-06-01T10:43:47.254Z,1.27
2019-06-01T10:46:16.846Z,2.20
2019-06-01T10:48:47.133Z,1.47
2019-06-01T10:51:17.423Z,2.30
2019-06-01T10:53:47.801Z,1.40
2019-06-01T10:56:18.234Z,1.53
2019-06-01T10:58:59.313Z,3.70
2019-06-01T11:01:20.424Z,1.63
2019-06-01T11:03:50.737Z,1.00
2019-06-01T11:06:36.213Z,1.50
2019-06-01T11:08:53.400Z,1.17
2019-06-01T11:11:23.685Z,3.03
2019-06-01T11:13:54.407Z,1.70
2019-06-01T11:16:27.691Z,4.13
2019-06-01T11:18:57.938Z,1.40
2019-06-01T11:21:28.364Z,2.07
2019-06-01T11:23:58.874Z,3.17
2019-06-01T11:26:29.221Z,2.50
2019-06-01T11:29:00.730Z,2.03
2019-06-01T11:31:30.996Z,1.40
2019-06-01T11:34:01.367Z,2.10
2019-06-01T11:36:31.767Z,2.27
2019-06-01T11:39:02.332Z,1.13
2019-06-01T11:41:34.432Z,2.27
2019-06-01T11:44:04.855Z,1.47
2019-06-01T11:46:36.911Z,1.30
2019-06-01T11:49:08.095Z,2.83
2019-06-01T11:51:39.393Z,2.13
2019-06-01T11:54:10.376Z,1.30
2019-06-01T11:56:41.347Z,1.90
2019-06-01T11:59:12.831Z,3.37
2019-06-01T12:01:44.091Z,1.60
2019-06-01T12:04:15.215Z,2.40
2019-06-01T12:06:46.330Z,3.20
2019-06-01T12:09:16.948Z,1.47
2019-06-01T12:11:47.952Z,1.60
2019-06-01T12:14:19.003Z,2.07
2019-06-01T12:16:49.244Z,2.63
2019-06-01T12:19:19.509Z,1.47
2019-06-01T12:21:49.741Z,1.63
2019-06-01T12:24:25.527Z,2.13
2019-06-01T12:26:55.294Z,2.63
2019-06-01T12:35:07.362Z,2.17
2019-06-01T12:38:00.731Z,2.50
2019-06-01T12:40:12.461Z,1.43
2019-06-01T12:42:44.030Z,1.87
2019-06-01T12:45:22.819Z,1.67
2019-06-01T12:47:55.359Z,2.10
2019-06-01T12:50:24.836Z,2.77
2019-06-01T12:52:55.029Z,2.33
2019-06-01T12:55:25.385Z,3.77
2019-06-01T12:57:55.754Z,1.63
2019-06-01T13:00:26.147Z,1.97
2019-06-01T13:03:07.194Z,2.20
2019-06-01T13:05:28.616Z,1.70
2019-06-01T13:08:02.735Z,2.37
2019-06-01T13:10:31.879Z,2.30
2019-06-01T13:13:05.571Z,2.87
2019-06-01T13:15:37.086Z,1.63
2019-06-01T13:18:10.499Z,2.33
2019-06-01T13:20:41.384Z,2.50
2019-06-01T13:23:12.012Z,3.10
2019-06-01T13:25:43.579Z,2.70
2019-06-01T13:28:14.292Z,1.70
2019-06-01T13:30:45.940Z,3.80
2019-06-01T13:33:19.287Z,2.97
2019-06-01T13:35:50.621Z,2.23
2019-06-01T13:38:21.105Z,4.47
2019-06-01T13:40:53.127Z,2.07
2019-06-01T13:43:23.648Z,1.97
2019-06-01T13:45:56.530Z,2.93
2019-06-01T13:48:26.957Z,3.00
2019-06-01T13:50:57.335Z,2.10
2019-06-01T13:53:27.739Z,1.63
2019-06-01T13:55:59.736Z,2.67
2019-06-01T13:58:30.344Z,2.43
2019-06-01T14:01:00.911Z,1.70
2019-06-01T14:03:31.518Z,3.20
2019-06-01T14:06:02.068Z,2.30
2019-06-01T14:08:32.417Z,2.13
2019-06-01T14:11:03.009Z,2.73
2019-06-01T14:13:33.463Z,2.20
2019-06-01T14:16:04.059Z,1.83
2019-06-01T14:18:34.585Z,2.20
2019-06-01T14:21:04.975Z,2.77
2019-06-01T14:23:35.448Z,2.20
2019-06-01T14:26:05.965Z,2.87
2019-06-01T14:28:36.624Z,1.70
2019-06-01T14:31:07.256Z,4.33
2019-06-01T14:33:37.893Z,2.27
2019-06-01T14:36:08.630Z,2.83
2019-06-01T14:38:46.831Z,3.70
2019-06-01T14:41:11.151Z,2.30
2019-06-01T14:43:42.494Z,1.87
2019-06-01T14:46:12.923Z,2.20
2019-06-01T14:48:43.409Z,2.50
2019-06-01T14:51:13.892Z,3.07
2019-06-01T14:53:44.481Z,2.13
2019-06-01T14:56:14.939Z,2.20
2019-06-01T14:58:45.381Z,1.67
2019-06-01T15:01:31.350Z,1.83
2019-06-01T15:03:48.261Z,2.30
2019-06-01T15:06:20.831Z,3.23
2019-06-01T15:09:13.167Z,2.70
2019-06-01T15:11:22.847Z,3.73
2019-06-01T15:13:54.284Z,3.60
2019-06-01T15:16:24.831Z,2.50
2019-06-01T15:21:24.714Z,3.97
2019-06-01T15:23:56.663Z,1.60
2019-06-01T15:26:27.232Z,2.07
2019-06-01T15:28:58.837Z,1.70
2019-06-01T15:31:29.338Z,2.73
2019-06-01T15:33:59.868Z,1.60
2019-06-01T15:36:30.503Z,2.10
2019-06-01T15:39:04.255Z,2.37
2019-06-01T15:41:34.742Z,2.83
2019-06-01T15:44:05.364Z,2.03
2019-06-01T15:46:35.705Z,2.70
2019-06-01T15:49:06.706Z,2.33
2019-06-01T15:51:37.305Z,3.97
2019-06-01T15:54:07.631Z,1.80
2019-06-01T15:56:38.071Z,1.93
2019-06-01T15:59:08.588Z,4.00
2019-06-01T16:01:40.288Z,3.30
2019-06-01T16:04:11.904Z,2.27
2019-06-01T16:06:42.321Z,2.00
2019-06-01T16:09:12.905Z,3.37
2019-06-01T16:11:43.470Z,1.70
2019-06-01T16:14:14.034Z,2.00
2019-06-01T16:16:44.718Z,2.73
2019-06-01T16:19:15.285Z,1.80
2019-06-01T16:21:45.985Z,1.30
2019-06-01T16:24:16.433Z,2.70
2019-06-01T16:26:48.025Z,15.93
2019-06-01T16:29:18.511Z,4.40
2019-06-01T16:31:49.047Z,1.70
2019-06-01T16:34:19.475Z,2.10
2019-06-01T16:36:49.844Z,1.70
2019-06-01T16:39:20.232Z,2.00
2019-06-01T16:41:50.598Z,2.20
2019-06-01T16:44:20.905Z,5.50
2019-06-01T16:46:51.174Z,18.97
2019-06-01T16:49:21.541Z,7.07
2019-06-01T16:51:53.365Z,2.70
2019-06-01T16:54:23.967Z,1.80
2019-06-01T16:56:55.925Z,2.33
2019-06-01T16:59:27.394Z,3.23
2019-06-01T17:01:58.979Z,1.60
2019-06-01T17:04:29.349Z,3.97
2019-06-01T17:07:00.672Z,2.77
2019-06-01T17:09:31.143Z,3.23
2019-06-01T17:12:01.653Z,2.50
2019-06-01T17:14:32.162Z,2.50
2019-06-01T17:17:05.174Z,1.87
2019-06-01T17:19:34.931Z,3.60
2019-06-01T17:22:05.603Z,3.47
2019-06-01T17:24:36.292Z,4.70
2019-06-01T17:27:08.210Z,7.33
2019-06-01T17:29:38.654Z,2.43
2019-06-01T17:32:23.632Z,6.60
2019-06-01T17:34:41.431Z,3.37
2019-06-01T17:37:12.325Z,2.37
2019-06-01T17:39:43.141Z,3.13
2019-06-01T17:42:13.948Z,3.57
2019-06-01T17:44:44.477Z,2.20
2019-06-01T17:47:15.747Z,2.43
2019-06-01T17:49:46.131Z,3.73
2019-06-01T17:52:16.927Z,2.37
2019-06-01T17:54:47.373Z,2.37
2019-06-01T17:57:17.890Z,2.17
2019-06-01T17:59:48.438Z,2.53
2019-06-01T18:02:18.697Z,2.93
2019-06-01T18:04:49.458Z,2.73
2019-06-01T18:07:19.918Z,2.03
2019-06-01T18:09:50.324Z,2.80
2019-06-01T18:12:20.694Z,2.23
2019-06-01T18:14:52.058Z,1.70
2019-06-01T18:17:22.455Z,3.47
2019-06-01T18:19:52.871Z,2.10
2019-06-01T18:22:23.222Z,3.37
2019-06-01T18:24:53.651Z,3.60
2019-06-01T18:27:24.086Z,3.80
2019-06-01T18:29:54.497Z,2.50
2019-06-01T18:32:24.872Z,3.33
2019-06-01T18:34:55.330Z,1.90
2019-06-01T18:37:25.883Z,3.07
2019-06-01T18:39:57.322Z,4.60
2019-06-01T18:42:30.242Z,3.77
2019-06-01T18:45:00.991Z,4.17
2019-06-01T18:47:32.703Z,4.50
2019-06-01T18:50:04.086Z,3.37
2019-06-01T18:52:34.701Z,3.73
2019-06-01T18:55:06.475Z,5.17
2019-06-01T18:57:40.294Z,4.83
2019-06-01T19:03:47.677Z,3.37
2019-06-01T19:06:20.356Z,4.40
2019-06-01T19:08:52.051Z,3.30
2019-06-01T19:11:32.796Z,5.70
2019-06-01T19:13:55.662Z,3.53
2019-06-01T19:16:26.220Z,3.73
2019-06-01T19:18:56.765Z,4.80
2019-06-01T19:21:31.038Z,5.77
2019-06-01T19:24:01.400Z,7.50
2019-06-01T19:26:33.052Z,5.57
2019-06-01T19:29:03.546Z,4.60
2019-06-01T19:31:33.933Z,5.73
2019-06-01T19:34:04.251Z,3.83
2019-06-01T19:36:34.794Z,4.90
2019-06-01T19:39:09.087Z,4.70
2019-06-01T19:41:44.674Z,7.00
2019-06-01T19:44:11.861Z,4.60
2019-06-01T19:46:42.209Z,4.93
2019-06-01T19:49:13.673Z,4.37
2019-06-01T19:51:44.691Z,7.13
2019-06-01T19:54:15.107Z,7.23
2019-06-01T19:56:52.732Z,7.53
2019-06-01T19:59:23.097Z,5.33
2019-06-01T20:01:53.700Z,5.63
2019-06-01T20:04:24.226Z,4.73
2019-06-01T20:06:54.854Z,6.13
2019-06-01T20:09:25.586Z,5.43
2019-06-01T20:12:01.965Z,6.97
2019-06-01T20:14:27.939Z,6.63
2019-06-01T20:16:58.237Z,7.47
2019-06-01T20:19:28.655Z,6.03
2019-06-01T20:21:59.163Z,4.00
2019-06-01T20:24:29.543Z,5.07
2019-06-01T20:26:59.843Z,5.37
2019-06-01T20:29:30.350Z,4.60
2019-06-01T20:32:02.862Z,6.67
2019-06-01T20:34:34.397Z,5.27
2019-06-01T20:39:34.470Z,5.63
2019-06-01T20:42:20.289Z,6.23
2019-06-01T20:44:37.048Z,7.17
2019-06-01T20:47:07.634Z,7.77
2019-06-01T20:52:07.984Z,8.67
2019-06-01T20:54:38.327Z,6.57
2019-06-01T20:57:08.672Z,8.57
2019-06-01T20:59:39.027Z,8.40
2019-06-01T21:02:11.232Z,6.97
2019-06-01T21:04:41.584Z,8.13
2019-06-01T21:07:11.929Z,7.97
2019-06-01T21:09:43.812Z,8.27
2019-06-01T21:12:16.140Z,8.30
2019-06-01T21:14:45.502Z,6.67
2019-06-01T21:17:16.516Z,6.40
2019-06-01T21:19:46.990Z,6.97
2019-06-01T21:22:18.507Z,8.03
2019-06-01T21:24:48.928Z,6.90
2019-06-01T21:27:22.709Z,11.23
2019-06-01T21:29:53.147Z,7.80
2019-06-01T21:32:25.643Z,7.80
2019-06-01T21:34:55.943Z,8.07
2019-06-01T21:37:26.541Z,7.50
2019-06-01T21:39:58.074Z,9.00
2019-06-01T21:42:28.614Z,7.37
2019-06-01T21:44:59.067Z,9.07
2019-06-01T21:47:29.759Z,8.53
2019-06-01T21:50:01.801Z,8.23
2019-06-01T21:52:32.251Z,7.53
2019-06-01T21:55:02.505Z,8.43
2019-06-01T21:57:32.900Z,7.90
2019-06-01T22:00:03.311Z,8.07
2019-06-01T22:02:35.726Z,7.70
2019-06-01T22:05:06.559Z,7.80
2019-06-01T22:07:36.910Z,7.30
2019-06-01T22:10:07.699Z,7.60
2019-06-01T22:12:38.116Z,8.20
2019-06-01T22:15:08.725Z,8.50
2019-06-01T22:17:40.261Z,10.27
2019-06-01T22:20:10.780Z,8.70
2019-06-01T22:22:41.294Z,8.03
2019-06-01T22:25:11.681Z,8.27
2019-06-01T22:27:42.483Z,9.20
2019-06-01T22:30:13.322Z,9.17
2019-06-01T22:32:44.068Z,8.87
2019-06-01T22:35:15.177Z,9.40
2019-06-01T22:37:45.566Z,9.07
2019-06-01T22:40:19.343Z,8.47
2019-06-01T22:42:50.127Z,9.53
2019-06-01T22:45:27.069Z,8.50
2019-06-01T22:47:57.615Z,8.53
2019-06-01T22:50:29.076Z,9.27
2019-06-01T22:52:59.801Z,10.43
2019-06-01T22:55:32.640Z,9.37
2019-06-01T22:58:03.701Z,8.00
2019-06-01T23:00:34.469Z,12.13
2019-06-01T23:03:04.917Z,10.00
2019-06-01T23:05:35.423Z,8.93
2019-06-01T23:08:06.120Z,9.43
2019-06-01T23:10:36.627Z,9.57
2019-06-01T23:13:07.145Z,9.63
2019-06-01T23:15:37.584Z,8.67
2019-06-01T23:18:07.898Z,10.37
2019-06-01T23:20:38.365Z,11.43
2019-06-01T23:23:08.739Z,8.97
2019-06-01T23:25:39.090Z,8.73
2019-06-01T23:28:09.419Z,8.73
2019-06-01T23:30:39.768Z,10.13
2019-06-01T23:33:10.287Z,9.60
2019-06-01T23:35:41.300Z,12.50
2019-06-01T23:38:12.245Z,8.63
2019-06-01T23:40:42.547Z,8.70
2019-06-01T23:43:12.806Z,8.27
2019-06-01T23:45:43.221Z,8.47
2019-06-01T23:48:14.670Z,8.90
2019-06-01T23:50:45.449Z,8.43
2019-06-01T23:53:15.724Z,9.47
2019-06-01T23:55:46.075Z,8.93
2019-06-01T23:58:16.443Z,10.37
